.
WxDataArchive / Data Records for 2012-08-23
2012-08-22 August 2012 2012-08-24

Data Records for Thursday, 23 August 2012

Time	Temp	Chill	HIndex	Humid	Dewpt	 Wind 	HiWind	WindDir	Rain 	Barom 
-----	----	-----	------	-----	-----	------	------	-------	-----	----- 
00:00	61.3	61.3	61.3	80	55.1	0	0	---	0.00	30.089 
00:05	61.2	61.2	61.2	80	55.0	0	0	---	0.00	30.089 
00:10	61.0	61.0	61.0	81	55.1	0	0	---	0.00	30.089 
00:15	60.9	60.9	60.9	81	55.0	0	0	---	0.00	30.092 
00:20	60.5	60.5	60.5	81	54.6	0	0	---	0.00	30.092 
00:25	60.4	60.4	60.4	82	54.9	0	0	---	0.00	30.092 
00:30	60.2	60.2	60.2	82	54.7	0	0	---	0.00	30.093 
00:35	60.1	60.1	60.1	82	54.6	0	0	---	0.00	30.093 
00:40	59.9	59.9	59.9	83	54.7	0	0	---	0.00	30.093 
00:45	59.8	59.8	59.8	83	54.6	0	0	---	0.00	30.090 
00:50	59.6	59.6	59.6	84	54.8	0	0	---	0.00	30.090 
00:55	59.5	59.5	59.5	84	54.7	0	0	---	0.00	30.090 
01:00	59.3	59.3	59.3	84	54.5	0	0	---	0.00	30.090 
01:05	59.3	59.3	59.3	84	54.5	0	0	---	0.00	30.090 
01:10	59.2	59.2	59.2	84	54.4	0	0	---	0.00	30.090 
01:15	59.0	59.0	59.0	85	54.5	0	0	---	0.00	30.093 
01:20	58.9	58.9	58.9	85	54.4	0	0	---	0.00	30.093 
01:25	58.7	58.7	58.7	85	54.2	0	0	---	0.00	30.093 
01:30	58.6	58.6	58.6	85	54.1	0	0	---	0.00	30.095 
01:35	58.4	58.4	58.4	86	54.2	0	0	---	0.00	30.095 
01:40	58.4	58.4	58.4	87	54.5	0	0	---	0.00	30.095 
01:45	58.3	58.3	58.3	87	54.4	0	0	---	0.00	30.095 
01:50	58.3	58.3	58.3	87	54.4	0	0	---	0.00	30.095 
01:55	58.1	58.1	58.1	88	54.6	0	0	---	0.00	30.095 
02:00	58.1	58.1	58.1	88	54.6	0	0	---	0.00	30.093 
02:05	58.0	58.0	58.0	88	54.5	0	0	---	0.00	30.093 
02:10	57.8	57.8	57.8	88	54.3	0	0	---	0.00	30.093 
02:15	57.6	57.6	57.6	88	54.1	0	0	---	0.00	30.093 
02:20	57.6	57.6	57.6	88	54.1	0	0	---	0.00	30.093 
02:25	57.6	57.6	57.6	89	54.4	0	0	---	0.00	30.093 
02:30	57.5	57.5	57.5	89	54.3	0	0	---	0.00	30.091 
02:35	57.5	57.5	57.5	89	54.3	0	0	---	0.00	30.091 
02:40	57.3	57.3	57.3	89	54.1	0	0	---	0.00	30.091 
02:45	57.2	57.2	57.2	90	54.3	0	0	---	0.00	30.096 
02:50	57.2	57.2	57.2	90	54.3	0	0	---	0.00	30.096 
02:55	57.2	57.2	57.2	90	54.3	0	0	---	0.00	30.096 
03:00	57.0	57.0	57.0	90	54.1	0	0	---	0.00	30.096 
03:05	57.0	57.0	57.0	90	54.1	0	0	---	0.00	30.096 
03:10	56.9	56.9	56.9	90	54.0	0	0	---	0.00	30.096 
03:15	56.7	56.7	56.7	90	53.8	0	0	---	0.00	30.096 
03:20	56.7	56.7	56.7	91	54.1	0	0	---	0.00	30.096 
03:25	56.6	56.6	56.6	91	54.0	0	0	---	0.00	30.096 
03:30	56.6	56.6	56.6	91	54.0	0	0	---	0.00	30.094 
03:35	56.5	56.5	56.5	91	53.9	0	0	---	0.00	30.094 
03:40	56.5	56.5	56.5	91	53.9	0	0	---	0.00	30.094 
03:45	56.3	56.3	56.3	91	53.7	0	0	---	0.00	30.089 
03:50	56.3	56.3	56.3	91	53.7	0	0	---	0.00	30.089 
03:55	56.2	56.2	56.2	91	53.6	0	0	---	0.00	30.089 
04:00	56.2	56.2	56.2	91	53.6	0	0	---	0.00	30.086 
04:05	56.0	56.0	56.0	92	53.7	0	0	---	0.00	30.086 
04:10	56.2	56.2	56.2	92	53.9	0	0	---	0.00	30.086 
04:15	56.0	56.0	56.0	92	53.7	0	0	---	0.00	30.088 
04:20	56.0	56.0	56.0	92	53.7	0	0	---	0.00	30.088 
04:25	56.0	56.0	56.0	92	53.7	0	0	---	0.00	30.088 
04:30	55.9	55.9	55.9	92	53.6	0	0	---	0.00	30.091 
04:35	55.9	55.9	55.9	92	53.6	0	0	---	0.00	30.091 
04:40	55.9	55.9	55.9	92	53.6	0	0	---	0.00	30.091 
04:45	55.9	55.9	55.9	92	53.6	0	0	---	0.00	30.091 
04:50	55.7	55.7	55.7	92	53.4	0	0	---	0.00	30.091 
04:55	55.7	55.7	55.7	92	53.4	0	0	---	0.00	30.091 
05:00	55.6	55.6	55.6	92	53.3	0	0	---	0.00	30.095 
05:05	55.6	55.6	55.6	92	53.3	0	0	---	0.00	30.095 
05:10	55.4	55.4	55.4	92	53.1	0	0	---	0.00	30.095 
05:15	55.3	55.3	55.3	92	53.0	0	0	---	0.00	30.097 
05:20	55.3	55.3	55.3	92	53.0	0	0	---	0.00	30.097 
05:25	55.1	55.1	55.1	92	52.8	0	0	---	0.00	30.097 
05:30	55.0	55.0	55.0	93	53.0	0	0	---	0.00	30.098 
05:35	55.0	55.0	55.0	93	53.0	0	0	---	0.00	30.098 
05:40	54.8	54.8	54.8	93	52.8	0	0	---	0.00	30.098 
05:45	54.8	54.8	54.8	93	52.8	0	0	---	0.00	30.098 
05:50	54.7	54.7	54.7	93	52.7	0	0	---	0.00	30.098 
05:55	54.7	54.7	54.7	93	52.7	0	0	---	0.00	30.098 
06:00	54.7	54.7	54.7	93	52.7	0	0	---	0.00	30.100 
06:05	54.7	54.7	54.7	93	52.7	0	0	---	0.00	30.100 
06:10	54.5	54.5	54.5	93	52.5	0	0	---	0.00	30.100 
06:15	54.5	54.5	54.5	93	52.5	0	0	---	0.00	30.103 
06:20	54.5	54.5	54.5	93	52.5	0	0	---	0.00	30.103 
06:25	54.4	54.4	54.4	93	52.4	0	0	---	0.00	30.103 
06:30	54.4	54.4	54.4	93	52.4	0	0	---	0.00	30.105 
06:35	54.2	54.2	54.2	93	52.2	0	0	---	0.00	30.105 
06:40	54.2	54.2	54.2	93	52.2	0	0	---	0.00	30.105 
06:45	54.2	54.2	54.2	93	52.2	0	0	---	0.00	30.111 
06:50	54.1	54.1	54.1	93	52.1	0	0	---	0.00	30.111 
06:55	54.1	54.1	54.1	93	52.1	0	0	---	0.00	30.111 
07:00	54.1	54.1	54.1	93	52.1	0	0	---	0.00	30.113 
07:05	53.9	53.9	53.9	93	51.9	0	0	---	0.00	30.113 
07:10	53.9	53.9	53.9	93	51.9	0	0	---	0.00	30.113 
07:15	54.1	54.1	54.1	94	52.4	0	0	---	0.00	30.118 
07:20	54.1	54.1	54.1	94	52.4	0	0	---	0.00	30.118 
07:25	54.1	54.1	54.1	94	52.4	0	0	---	0.00	30.118 
07:30	54.2	54.2	54.2	94	52.5	0	0	---	0.00	30.119 
07:35	54.4	54.4	54.4	94	52.7	0	0	---	0.00	30.119 
07:40	54.5	54.5	54.5	94	52.8	0	0	---	0.00	30.119 
07:45	54.7	54.7	54.7	94	53.0	0	0	---	0.00	30.121 
07:50	55.1	55.1	55.1	94	53.4	0	0	---	0.00	30.121 
07:55	55.6	55.6	55.6	94	53.9	0	0	---	0.00	30.121 
08:00	56.2	56.2	56.2	94	54.5	0	0	---	0.00	30.120 
08:05	56.7	56.7	56.7	94	55.0	0	0	---	0.00	30.120 
08:10	58.0	58.0	58.0	95	56.6	0	0	---	0.00	30.120 
08:15	59.5	59.5	59.5	95	58.1	0	1	292	0.00	30.120 
08:20	60.7	60.7	60.7	93	58.7	0	1	292	0.00	30.120 
08:25	62.0	62.0	62.0	91	59.3	0	0	---	0.00	30.120 
08:30	62.9	62.9	62.9	89	59.6	0	0	---	0.00	30.118 
08:35	63.9	63.9	63.9	86	59.6	0	0	---	0.00	30.118 
08:40	64.5	64.5	64.5	81	58.5	0	0	---	0.00	30.118 
08:45	65.2	65.2	65.2	80	58.9	0	0	---	0.00	30.119 
08:50	65.8	65.8	65.8	76	58.0	0	0	---	0.00	30.119 
08:55	66.4	66.4	66.4	73	57.5	0	0	---	0.00	30.119 
09:00	67.3	67.3	67.3	70	57.2	0	1	292	0.00	30.122 
09:05	67.4	67.4	67.4	69	56.9	0	1	292	0.00	30.122 
09:10	67.6	67.6	67.6	69	57.1	0	1	292	0.00	30.122 
09:15	67.9	67.9	67.9	69	57.3	0	1	292	0.00	30.130 
09:20	68.1	68.1	68.1	69	57.5	0	2	292	0.00	30.130 
09:25	68.3	68.3	68.3	69	57.7	0	1	292	0.00	30.130 
09:30	68.6	68.6	68.6	67	57.2	0	1	292	0.00	30.132 
09:35	69.3	69.3	69.3	66	57.4	0	1	292	0.00	30.132 
09:40	70.1	70.1	70.1	65	57.8	0	0	---	0.00	30.132 
09:45	70.9	70.9	70.9	64	58.1	0	1	292	0.00	30.131 
09:50	71.5	71.5	71.5	63	58.2	0	1	292	0.00	30.131 
09:55	72.5	72.5	72.5	61	58.3	0	0	---	0.00	30.131 
10:00	73.0	73.0	73.0	57	56.9	0	1	292	0.00	30.128 
10:05	73.7	73.7	73.7	56	57.0	0	0	---	0.00	30.128 
10:10	74.4	74.4	74.4	55	57.2	0	0	---	0.00	30.128 
10:15	75.3	75.3	77.7	53	57.0	0	1	292	0.00	30.125 
10:20	75.8	75.8	78.0	52	56.9	0	1	292	0.00	30.125 
10:25	76.3	76.3	78.3	54	58.4	0	1	292	0.00	30.125 
10:30	76.8	76.8	78.5	50	56.7	0	0	---	0.00	30.126 
10:35	77.2	77.2	78.8	52	58.2	0	0	---	0.00	30.126 
10:40	77.9	77.9	79.2	50	57.7	0	1	292	0.00	30.126 
10:45	78.3	78.3	79.2	45	55.2	0	1	292	0.00	30.128 
10:50	78.6	78.6	79.3	44	54.8	0	2	292	0.00	30.128 
10:55	79.4	79.4	80.1	47	57.4	0	1	292	0.00	30.128 
11:00	79.9	79.9	80.4	46	57.2	0	2	292	0.00	30.128 
11:05	80.1	80.1	80.3	43	55.6	0	2	292	0.00	30.128 
11:10	80.3	80.3	80.3	42	55.1	0	1	292	0.00	30.128 
11:15	81.1	81.1	80.7	40	54.5	0	1	292	0.00	30.128 
11:20	81.8	81.8	81.3	40	55.1	0	2	292	0.00	30.128 
11:25	81.4	81.4	80.9	39	54.0	0	3	292	0.00	30.128 
11:30	81.4	81.4	81.0	40	54.7	0	1	292	0.00	30.129 
11:35	81.8	81.8	81.3	40	55.1	0	1	292	0.00	30.129 
11:40	82.4	82.4	81.3	36	52.7	0	1	292	0.00	30.129 
11:45	82.6	82.6	81.5	36	52.9	0	2	292	0.00	30.128 
11:50	82.4	82.4	81.4	37	53.5	1	2	292	0.00	30.128 
11:55	82.0	82.0	80.9	35	51.6	1	2	292	0.00	30.128 
12:00	82.0	82.0	80.9	35	51.6	1	3	292	0.00	30.127 
12:05	82.2	82.2	81.1	35	51.8	0	2	292	0.00	30.127 
12:10	82.6	82.6	81.4	35	52.1	1	2	292	0.00	30.127 
12:15	83.2	83.2	82.0	36	53.4	1	3	292	0.00	30.128 
12:20	83.2	83.2	81.9	35	52.7	0	2	292	0.00	30.128 
12:25	83.4	83.4	81.9	34	52.1	0	3	292	0.00	30.128 
12:30	83.4	83.4	81.9	34	52.1	1	3	292	0.00	30.126 
12:35	83.0	83.0	81.4	32	50.1	0	2	292	0.00	30.126 
12:40	83.2	83.2	81.7	33	51.1	1	2	292	0.00	30.126 
12:45	83.6	83.6	82.2	35	53.0	0	2	292	0.00	30.127 
12:50	83.8	83.8	82.3	34	52.4	1	3	292	0.00	30.127 
12:55	83.8	83.8	82.1	32	50.8	1	3	292	0.00	30.127 
13:00	84.3	84.3	82.6	33	52.0	0	3	292	0.00	30.124 
13:05	84.7	84.7	82.7	31	50.7	0	3	292	0.00	30.124 
13:10	84.7	84.7	83.0	33	52.4	1	3	292	0.00	30.124 
13:15	84.5	84.5	82.4	30	49.6	1	2	292	0.00	30.114 
13:20	84.7	84.7	82.6	30	49.8	1	4	292	0.00	30.114 
13:25	84.3	84.3	82.3	30	49.5	1	2	292	0.00	30.114 
13:30	84.5	84.5	82.4	30	49.6	1	3	292	0.00	30.112 
13:35	84.9	84.9	83.0	32	51.7	0	3	292	0.00	30.112 
13:40	85.3	85.3	83.1	30	50.3	0	2	292	0.00	30.112 
13:45	85.5	85.5	83.7	33	53.1	0	2	292	0.00	30.105 
13:50	85.7	85.7	83.6	31	51.5	1	3	292	0.00	30.105 
13:55	85.3	85.3	83.0	29	49.4	1	3	292	0.00	30.105 
14:00	85.1	85.1	82.8	29	49.2	1	2	292	0.00	30.103 
14:05	85.7	85.7	83.6	31	51.5	1	2	292	0.00	30.103 
14:10	86.1	86.1	83.7	29	50.1	1	2	292	0.00	30.103 
14:15	86.1	86.1	83.7	29	50.1	1	3	0	0.00	30.102 
14:20	85.5	85.5	83.1	28	48.6	0	2	0	0.00	30.102 
14:25	85.5	85.5	83.2	29	49.6	1	3	0	0.00	30.102 
14:30	85.3	85.3	83.1	30	50.3	1	2	0	0.00	30.097 
14:35	85.7	85.7	83.6	31	51.5	1	2	0	0.00	30.097 
14:40	85.9	85.9	83.5	29	49.9	0	3	45	0.00	30.097 
14:45	86.1	86.1	83.7	29	50.1	0	1	45	0.00	30.094 
14:50	86.1	86.1	84.0	31	51.9	0	2	45	0.00	30.094 
14:55	87.0	87.0	84.4	28	49.9	0	3	315	0.00	30.094 
15:00	87.2	87.2	85.1	31	52.8	1	3	338	0.00	30.087 
15:05	87.4	87.4	85.3	31	53.0	0	1	338	0.00	30.087 
15:10	87.8	87.8	85.2	28	50.6	0	2	338	0.00	30.087 
15:15	88.0	88.0	85.3	27	49.8	0	2	338	0.00	30.080 
15:20	88.0	88.0	85.6	29	51.7	1	2	338	0.00	30.080 
15:25	88.0	88.0	85.3	27	49.8	0	2	0	0.00	30.080 
15:30	87.8	87.8	85.1	27	49.6	1	4	90	0.00	30.078 
15:35	87.4	87.4	84.8	28	50.3	1	2	90	0.00	30.078 
15:40	87.2	87.2	84.9	30	52.0	1	3	135	0.00	30.078 
15:45	87.4	87.4	85.3	31	53.0	0	2	135	0.00	30.074 
15:50	87.4	87.4	85.1	30	52.1	1	3	135	0.00	30.074 
15:55	87.4	87.4	85.0	29	51.2	1	3	135	0.00	30.074 
16:00	87.4	87.4	85.1	30	52.1	0	1	135	0.00	30.066 
16:05	87.6	87.6	84.9	27	49.4	0	3	135	0.00	30.066 
16:10	87.6	87.6	85.0	28	50.4	1	2	135	0.00	30.066 
16:15	87.4	87.4	85.0	29	51.2	1	3	135	0.00	30.066 
16:20	87.0	87.0	84.6	29	50.9	2	5	68	0.00	30.066 
16:25	86.3	86.3	83.9	29	50.3	1	4	68	0.00	30.066 
16:30	85.9	85.9	83.8	31	51.7	2	7	90	0.00	30.066 
16:35	85.7	85.7	83.9	33	53.2	2	5	90	0.00	30.066 
16:40	85.3	85.3	83.4	32	52.1	2	5	90	0.00	30.066 
16:45	85.3	85.3	83.1	30	50.3	1	3	90	0.00	30.067 
16:50	85.7	85.7	83.7	32	52.4	1	3	90	0.00	30.067 
16:55	85.7	85.7	83.6	31	51.5	2	6	90	0.00	30.067 
17:00	85.5	85.5	83.4	31	51.4	1	5	90	0.00	30.063 
17:05	85.5	85.5	83.6	32	52.2	1	3	90	0.00	30.063 
17:10	85.5	85.5	83.4	31	51.4	1	5	90	0.00	30.063 
17:15	85.5	85.5	83.7	33	53.1	1	3	90	0.00	30.063 
17:20	85.3	85.3	83.5	33	52.9	2	5	112	0.00	30.063 
17:25	85.1	85.1	83.5	34	53.5	1	5	112	0.00	30.063 
17:30	84.7	84.7	83.1	34	53.2	2	6	68	0.00	30.063 
17:35	84.7	84.7	83.0	33	52.4	1	2	68	0.00	30.063 
17:40	84.7	84.7	82.8	32	51.5	2	4	68	0.00	30.063 
17:45	84.5	84.5	82.8	33	52.2	1	4	90	0.00	30.065 
17:50	84.5	84.5	82.8	33	52.2	1	3	158	0.00	30.065 
17:55	84.3	84.3	82.6	33	52.0	1	2	112	0.00	30.065 
18:00	84.3	84.3	82.7	34	52.8	1	4	112	0.00	30.064 
18:05	84.1	84.1	82.4	33	51.9	1	4	68	0.00	30.064 
18:10	84.0	84.0	82.3	33	51.8	1	3	68	0.00	30.064 
18:15	83.8	83.8	82.4	35	53.2	1	3	135	0.00	30.060 
18:20	83.6	83.6	82.1	34	52.2	1	6	135	0.00	30.060 
18:25	83.4	83.4	82.1	35	52.8	0	2	135	0.00	30.060 
18:30	83.2	83.2	82.0	36	53.4	1	4	135	0.00	30.063 
18:35	83.2	83.2	81.9	35	52.7	1	3	90	0.00	30.063 
18:40	83.0	83.0	81.8	36	53.3	1	4	112	0.00	30.063 
18:45	82.8	82.8	81.9	38	54.6	1	4	112	0.00	30.061 
18:50	82.6	82.6	81.6	37	53.7	1	3	112	0.00	30.061 
18:55	82.4	82.4	81.4	37	53.5	1	4	112	0.00	30.061 
19:00	82.2	82.2	81.3	37	53.3	1	2	90	0.00	30.062 
19:05	82.2	82.2	81.5	39	54.7	0	2	90	0.00	30.062 
19:10	82.0	82.0	81.3	39	54.6	0	2	90	0.00	30.062 
19:15	81.8	81.8	81.2	39	54.4	0	2	90	0.00	30.063 
19:20	81.6	81.6	81.1	40	54.9	0	1	135	0.00	30.063 
19:25	81.4	81.4	81.0	40	54.7	0	1	135	0.00	30.063 
19:30	81.1	81.1	80.8	41	55.1	0	2	135	0.00	30.064 
19:35	80.7	80.7	80.5	41	54.8	0	2	135	0.00	30.064 
19:40	80.5	80.5	80.5	42	55.3	0	2	135	0.00	30.064 
19:45	80.1	80.1	80.2	42	54.9	0	1	135	0.00	30.066 
19:50	79.8	79.8	80.0	43	55.3	0	2	135	0.00	30.066 
19:55	79.6	79.6	80.0	44	55.7	0	1	135	0.00	30.066 
20:00	79.2	79.2	79.8	45	56.0	0	0	---	0.00	30.065 
20:05	78.6	78.6	79.4	46	56.1	0	0	---	0.00	30.065 
20:10	78.3	78.3	79.2	46	55.8	0	0	---	0.00	30.065 
20:15	77.9	77.9	79.0	46	55.4	0	0	---	0.00	30.058 
20:20	77.4	77.4	78.7	47	55.6	0	0	---	0.00	30.058 
20:25	77.0	77.0	78.5	47	55.2	0	0	---	0.00	30.058 
20:30	76.8	76.8	78.4	48	55.6	0	0	---	0.00	30.059 
20:35	76.3	76.3	78.2	50	56.3	0	0	---	0.00	30.059 
20:40	76.0	76.0	78.1	51	56.5	0	0	---	0.00	30.059 
20:45	75.4	75.4	77.8	52	56.5	0	0	---	0.00	30.063 
20:50	74.7	74.7	74.7	53	56.4	0	0	---	0.00	30.063 
20:55	74.2	74.2	74.2	54	56.5	0	0	---	0.00	30.063 
21:00	73.7	73.7	73.7	55	56.5	0	0	---	0.00	30.067 
21:05	73.3	73.3	73.3	55	56.1	0	0	---	0.00	30.067 
21:10	72.8	72.8	72.8	57	56.7	0	0	---	0.00	30.067 
21:15	72.5	72.5	72.5	58	56.9	0	0	---	0.00	30.070 
21:20	72.3	72.3	72.3	58	56.7	0	0	---	0.00	30.070 
21:25	72.0	72.0	72.0	59	56.9	0	0	---	0.00	30.070 
21:30	71.6	71.6	71.6	60	57.0	0	0	---	0.00	30.075 
21:35	71.3	71.3	71.3	62	57.6	0	0	---	0.00	30.075 
21:40	70.9	70.9	70.9	62	57.2	0	0	---	0.00	30.075 
21:45	70.6	70.6	70.6	63	57.4	0	0	---	0.00	30.072 
21:50	70.4	70.4	70.4	64	57.6	0	0	---	0.00	30.072 
21:55	70.3	70.3	70.3	65	58.0	0	0	---	0.00	30.072 
22:00	69.9	69.9	69.9	65	57.6	0	0	---	0.00	30.077 
22:05	69.8	69.8	69.8	66	57.9	0	0	---	0.00	30.077 
22:10	69.4	69.4	69.4	66	57.5	0	0	---	0.00	30.077 
22:15	69.3	69.3	69.3	67	57.9	0	0	---	0.00	30.074 
22:20	69.1	69.1	69.1	67	57.7	0	0	---	0.00	30.074 
22:25	68.8	68.8	68.8	68	57.8	0	0	---	0.00	30.074 
22:30	68.6	68.6	68.6	69	58.0	0	0	---	0.00	30.072 
22:35	68.4	68.4	68.4	70	58.2	0	0	---	0.00	30.072 
22:40	68.3	68.3	68.3	70	58.1	0	0	---	0.00	30.072 
22:45	68.1	68.1	68.1	71	58.3	0	0	---	0.00	30.072 
22:50	67.9	67.9	67.9	72	58.5	0	0	---	0.00	30.072 
22:55	67.8	67.8	67.8	73	58.8	0	0	---	0.00	30.072 
23:00	67.8	67.8	67.8	74	59.2	0	0	---	0.00	30.074 
23:05	67.6	67.6	67.6	74	59.0	0	0	---	0.00	30.074 
23:10	67.4	67.4	67.4	75	59.2	0	0	---	0.00	30.074 
23:15	67.3	67.3	67.3	75	59.1	0	0	---	0.00	30.071 
23:20	67.1	67.1	67.1	76	59.3	0	0	---	0.00	30.071 
23:25	66.9	66.9	66.9	77	59.4	0	0	---	0.00	30.071 
23:30	66.8	66.8	66.8	77	59.3	0	0	---	0.00	30.074 
23:35	66.4	66.4	66.4	78	59.3	0	0	---	0.00	30.074 
23:40	66.3	66.3	66.3	79	59.6	0	0	---	0.00	30.074 
23:45	66.1	66.1	66.1	79	59.4	0	0	---	0.00	30.073 
23:50	66.0	66.0	66.0	80	59.6	0	0	---	0.00	30.073 
23:55	65.8	65.8	65.8	81	59.8	0	0	---	0.00	30.073 

CoCoRaHS
IN-AL-39
A2 Web Hosting
Creative Commons License
GoDaddy
search engine by freefind advanced

loaded 2018-11-16 10:36:49 • last modified 2010-11-18 10:43:29
Privacy PolicyDisclaimer
• wx.awcolley.com is powered by PmWiki v.2002016 •
• all content (unless otherwise noted) © 2018 A W Colley